Time;durP1;ratioP1;P1;durP2;ratioP2;P2;SDS_P1;SDS_P2;PMS_P1;PMS_P2;Temp;Humidity;BMP_temperature;BMP_pressure;BME280_temperature;BME280_humidity;BME280_pressure;Samples;Min_cycle;Max_cycle;Signal;HPM_P1;HPM_P2
2022/12/13 00:01:23;;;;;;;;;;;;;;;-3.56;56.45;94672.59;5051379;28;20112;-63
2022/12/13 00:03:48;;;;;;;;;;;;;;;-3.56;56.37;94665.56;5051462;28;20570;-65
2022/12/13 00:06:13;;;;;;;;;;;;;;;-3.62;56.51;94669.09;5069262;28;20014;-64
2022/12/13 00:08:40;;;;;;;;;;;;;;;-3.57;56.77;94663.22;5068593;28;20009;-63
2022/12/13 00:11:06;;;;;;;;;;;;;;;-3.66;56.67;94666.13;5051199;28;20060;-64
2022/12/13 00:13:32;;;;;;;;;;;;;;;-3.69;56.91;94669.19;5069036;28;20009;-64
2022/12/13 00:15:58;;;;;;;;;;;;;;;-3.63;56.35;94664.09;5051407;28;20063;-65
2022/12/13 00:18:24;;;;;;;;;;;;;;;-3.60;56.43;94663.66;5050877;28;20443;-66
2022/12/13 00:20:49;;;;;;;;;;;;;;;-3.61;56.50;94657.66;5072693;28;20014;-66
2022/12/13 00:23:14;;;;;;;;;;;;;;;-3.64;56.52;94663.31;5054810;28;20060;-64
2022/12/13 00:25:39;;;;;;;;;;;;;;;-3.62;56.75;94663.09;5072624;28;20047;-65
2022/12/13 00:28:05;;;;;;;;;;;;;;;-3.63;56.51;94662.31;5072406;28;20063;-65
2022/12/13 00:30:33;;;;;;;;;;;;;;;-3.66;56.39;94660.16;5072433;28;20059;-65
2022/12/13 00:32:58;;;;;;;;;;;;;;;-3.70;56.82;94659.81;5054729;28;20464;-64
2022/12/13 00:35:23;;;;;;;;;;;;;;;-3.71;56.42;94654.84;5072467;28;20024;-65
2022/12/13 00:37:48;;;;;;;;;;;;;;;-3.80;56.86;94654.38;5055019;28;20075;-64
2022/12/13 00:40:13;;;;;;;;;;;;;;;-3.70;56.68;94648.63;5072196;28;20009;-64
2022/12/13 00:42:39;;;;;;;;;;;;;;;-3.71;56.51;94649.66;5072653;28;20009;-65
2022/12/13 00:45:04;;;;;;;;;;;;;;;-3.72;56.47;94654.06;5054591;28;20079;-65
2022/12/13 00:47:29;;;;;;;;;;;;;;;-3.71;56.81;94654.84;5054551;28;20056;-64
2022/12/13 00:49:54;;;;;;;;;;;;;;;-3.69;56.65;94661.38;5072121;28;20059;-65
2022/12/13 00:52:20;;;;;;;;;;;;;;;-3.67;56.81;94648.19;5072349;28;20110;-65
2022/12/13 00:54:45;;;;;;;;;;;;;;;-3.71;57.06;94647.84;5072570;28;20121;-66
2022/12/13 00:57:10;;;;;;;;;;;;;;;-3.67;56.86;94653.38;5054480;28;20012;-65
2022/12/13 00:59:35;;;;;;;;;;;;;;;-3.70;57.05;94646.81;5072052;28;20384;-63
2022/12/13 01:02:01;;;;;;;;;;;;;;;-3.71;56.78;94652.25;5072298;28;20009;-64
2022/12/13 01:04:26;;;;;;;;;;;;;;;-3.69;56.96;94647.59;5072415;28;20479;-64
2022/12/13 01:06:52;;;;;;;;;;;;;;;-3.72;56.51;94648.84;5054257;28;20024;-65
2022/12/13 01:09:19;;;;;;;;;;;;;;;-3.75;56.43;94638.91;5054143;28;20018;-64
2022/12/13 01:11:45;;;;;;;;;;;;;;;-3.83;56.90;94641.84;5072150;28;20021;-65
2022/12/13 01:14:10;;;;;;;;;;;;;;;-3.76;56.91;94641.75;5072034;28;20010;-65
2022/12/13 01:16:36;;;;;;;;;;;;;;;-3.78;57.22;94643.78;5053952;28;20503;-64
2022/12/13 01:19:01;;;;;;;;;;;;;;;-3.82;56.73;94638.25;5071346;28;20546;-65
2022/12/13 01:21:26;;;;;;;;;;;;;;;-3.82;57.08;94635.63;5071674;28;20020;-65
2022/12/13 01:23:51;;;;;;;;;;;;;;;-3.82;56.58;94630.44;5071692;28;20021;-64
2022/12/13 01:26:19;;;;;;;;;;;;;;;-3.85;56.51;94630.88;5053674;28;20476;-67
2022/12/13 01:28:44;;;;;;;;;;;;;;;-3.82;56.33;94622.66;5071119;28;20016;-64
2022/12/13 01:31:11;;;;;;;;;;;;;;;-3.86;56.81;94624.13;5052557;28;20066;-65
2022/12/13 01:33:37;;;;;;;;;;;;;;;-3.85;56.71;94623.09;5053322;28;20017;-65
2022/12/13 01:36:04;;;;;;;;;;;;;;;-3.87;56.14;94621.75;5071313;28;20013;-65
2022/12/13 01:38:30;;;;;;;;;;;;;;;-3.88;56.78;94614.97;5070789;28;20071;-64
2022/12/13 01:40:58;;;;;;;;;;;;;;;-3.90;56.30;94614.41;5053373;28;20122;-64
2022/12/13 01:43:25;;;;;;;;;;;;;;;-3.97;56.66;94611.91;5071027;28;20098;-65
2022/12/13 01:45:51;;;;;;;;;;;;;;;-3.97;56.02;94607.50;5070726;28;20021;-64
2022/12/13 01:48:20;;;;;;;;;;;;;;;-3.98;55.88;94599.94;5086425;28;20024;-64
2022/12/13 01:50:50;;;;;;;;;;;;;;;-4.01;56.06;94608.19;5071154;28;20469;-65
2022/12/13 01:53:20;;;;;;;;;;;;;;;-4.05;56.09;94594.06;5071126;28;20009;-63
2022/12/13 01:55:49;;;;;;;;;;;;;;;-4.08;56.05;94595.31;5053174;28;20010;-64
2022/12/13 01:58:14;;;;;;;;;;;;;;;-4.15;56.96;94591.25;5070493;28;20111;-63
2022/12/13 02:00:40;;;;;;;;;;;;;;;-4.14;57.41;94596.22;5070949;28;20703;-64
2022/12/13 02:03:05;;;;;;;;;;;;;;;-4.14;57.29;94591.03;5053289;28;20009;-64
2022/12/13 02:05:34;;;;;;;;;;;;;;;-4.13;56.42;94586.63;5070870;28;20015;-64
2022/12/13 02:08:00;;;;;;;;;;;;;;;-4.18;57.01;94595.88;5052602;28;20013;-64
2022/12/13 02:10:26;;;;;;;;;;;;;;;-4.20;56.75;94590.13;5052539;28;20017;-65
2022/12/13 02:12:51;;;;;;;;;;;;;;;-4.21;56.83;94585.13;5070508;28;20017;-65
2022/12/13 02:15:18;;;;;;;;;;;;;;;-4.22;56.82;94589.53;5070806;28;20005;-65
2022/12/13 02:17:45;;;;;;;;;;;;;;;-4.28;57.09;94584.47;5070339;28;20009;-64
2022/12/13 02:20:17;;;;;;;;;;;;;;;-4.47;57.48;94581.97;5052024;28;20009;-64
2022/12/13 02:23:01;;;;;;;;;;;;;;;-4.35;57.34;94568.19;5052718;28;20036;-65
2022/12/13 02:25:29;;;;;;;;;;;;;;;-4.71;57.87;94573.34;5070577;28;20416;-64
2022/12/13 02:27:54;;;;;;;;;;;;;;;-4.65;58.22;94573.47;5070191;28;20012;-64
2022/12/13 02:30:31;;;;;;;;;;;;;;;-5.17;60.96;94571.38;5069812;28;20116;-66
2022/12/13 02:33:06;;;;;;;;;;;;;;;-4.74;58.37;94565.22;5085463;28;20016;-65
2022/12/13 02:35:46;;;;;;;;;;;;;;;-4.67;59.03;94559.91;5090390;28;20008;-65
2022/12/13 02:38:28;;;;;;;;;;;;;;;-4.62;59.15;94560.03;5089848;28;20468;-63
2022/12/13 02:40:57;;;;;;;;;;;;;;;-4.53;58.27;94556.13;5090441;28;20008;-64
2022/12/13 02:43:26;;;;;;;;;;;;;;;-4.49;58.40;94557.25;5090198;28;20015;-65
2022/12/13 02:45:53;;;;;;;;;;;;;;;-4.47;58.48;94552.63;5090236;28;20056;-65
2022/12/13 02:48:30;;;;;;;;;;;;;;;-4.48;58.11;94553.63;5089755;28;20020;-64
2022/12/13 02:50:57;;;;;;;;;;;;;;;-4.45;58.25;94540.22;5090076;28;20114;-64
2022/12/13 02:53:23;;;;;;;;;;;;;;;-4.47;57.90;94539.63;5090141;28;20009;-64
2022/12/13 02:55:48;;;;;;;;;;;;;;;-4.51;57.50;94531.50;5090282;28;20020;-65
2022/12/13 02:58:22;;;;;;;;;;;;;;;-4.50;57.72;94534.91;5089473;28;20020;-64
2022/12/13 03:00:59;;;;;;;;;;;;;;;-4.46;57.85;94531.63;5090281;28;20009;-64
2022/12/13 03:03:31;;;;;;;;;;;;;;;-4.46;57.99;94526.41;5090066;28;20020;-64
2022/12/13 03:09:09;;;;;;;;;;;;;;;-4.53;57.71;94524.97;5089790;28;20469;-64
2022/12/13 03:14:27;;;;;;;;;;;;;;;-4.53;58.79;94524.97;5089956;28;20016;-64
2022/12/13 03:16:53;;;;;;;;;;;;;;;-4.52;58.60;94521.34;5089874;28;20439;-65
2022/12/13 03:19:19;;;;;;;;;;;;;;;-4.51;57.97;94523.72;5088574;28;20008;-65
2022/12/13 03:21:45;;;;;;;;;;;;;;;-4.49;58.04;94526.09;5089288;28;20461;-64
2022/12/13 03:24:10;;;;;;;;;;;;;;;-4.47;58.54;94526.66;5089796;28;20008;-64
2022/12/13 03:26:37;;;;;;;;;;;;;;;-4.47;57.82;94531.84;5089735;28;20016;-64
2022/12/13 03:29:02;;;;;;;;;;;;;;;-4.47;58.19;94524.84;5089391;28;20119;-64
2022/12/13 03:31:27;;;;;;;;;;;;;;;-4.45;58.36;94522.84;5089861;28;20115;-63
2022/12/13 03:33:52;;;;;;;;;;;;;;;-4.46;58.27;94530.81;5089631;28;20477;-64
2022/12/13 03:36:18;;;;;;;;;;;;;;;-4.47;58.24;94521.47;5089659;28;20012;-65
2022/12/13 03:38:44;;;;;;;;;;;;;;;-4.46;58.70;94525.63;5089243;28;20020;-64
2022/12/13 03:41:14;;;;;;;;;;;;;;;-4.50;57.86;94527.13;5089445;28;20008;-64
2022/12/13 03:43:39;;;;;;;;;;;;;;;-4.48;58.05;94525.09;5089595;28;20447;-65
2022/12/13 03:46:05;;;;;;;;;;;;;;;-4.51;58.74;94520.34;5089651;28;20051;-64
2022/12/13 03:48:31;;;;;;;;;;;;;;;-4.51;57.33;94517.72;5071057;28;20488;-64
2022/12/13 03:50:56;;;;;;;;;;;;;;;-4.56;58.66;94517.63;5089457;28;20062;-64
2022/12/13 03:53:22;;;;;;;;;;;;;;;-4.55;57.92;94522.59;5089783;28;20070;-64
2022/12/13 03:55:47;;;;;;;;;;;;;;;-4.58;58.79;94517.06;5093387;28;20016;-65
2022/12/13 03:58:12;;;;;;;;;;;;;;;-4.57;57.77;94510.84;5092915;28;20024;-64
2022/12/13 04:00:38;;;;;;;;;;;;;;;-4.57;58.48;94505.66;5075145;28;20012;-64
2022/12/13 04:03:03;;;;;;;;;;;;;;;-4.60;57.82;94503.53;5075316;28;20021;-64
2022/12/13 04:05:29;;;;;;;;;;;;;;;-4.67;58.27;94503.63;5093476;28;20031;-64
2022/12/13 04:07:54;;;;;;;;;;;;;;;-4.64;58.29;94499.81;5093054;28;20055;-64
2022/12/13 04:10:20;;;;;;;;;;;;;;;-4.66;58.40;94499.22;5074576;28;20017;-64
2022/12/13 04:15:29;;;;;;;;;;;;;;;-4.66;58.75;94500.00;5093242;28;20016;-64
2022/12/13 04:17:54;;;;;;;;;;;;;;;-4.71;58.46;94497.28;5074569;28;20017;-64
2022/12/13 04:20:19;;;;;;;;;;;;;;;-4.74;58.04;94503.75;5074384;28;20421;-64
2022/12/13 04:22:44;;;;;;;;;;;;;;;-4.87;58.15;94503.16;5093107;28;20046;-65
2022/12/13 04:25:10;;;;;;;;;;;;;;;-4.95;58.54;94495.72;5103281;22;20029;-69
2022/12/13 04:27:36;;;;;;;;;;;;;;;-4.88;59.38;94491.97;5095360;28;20108;-70
2022/12/13 04:30:02;;;;;;;;;;;;;;;-4.85;58.38;94501.13;5112826;28;20372;-69
2022/12/13 04:32:28;;;;;;;;;;;;;;;-4.90;58.30;94496.63;5094601;28;20107;-67
2022/12/13 04:34:53;;;;;;;;;;;;;;;-4.88;58.88;94501.56;5096035;28;20013;-67
2022/12/13 04:37:18;;;;;;;;;;;;;;;-4.84;59.40;94493.13;5092785;28;20009;-67
2022/12/13 04:39:44;;;;;;;;;;;;;;;-4.84;59.21;94493.13;5092198;28;20078;-67
2022/12/13 04:42:09;;;;;;;;;;;;;;;-4.80;59.14;94496.06;5092645;28;20009;-68
2022/12/13 04:44:35;;;;;;;;;;;;;;;-4.80;59.05;94498.66;5073963;28;20013;-67
2022/12/13 04:47:01;;;;;;;;;;;;;;;-4.85;58.66;94493.34;5092460;28;20120;-69
2022/12/13 04:49:27;;;;;;;;;;;;;;;-4.82;57.87;94493.69;5092130;28;20009;-68
2022/12/13 04:51:52;;;;;;;;;;;;;;;-4.80;58.83;94488.28;5092362;28;20178;-67
2022/12/13 04:54:17;;;;;;;;;;;;;;;-4.85;58.03;94493.34;5092329;28;20009;-67
2022/12/13 04:56:42;;;;;;;;;;;;;;;-4.92;58.61;94488.25;5092247;28;20068;-68
2022/12/13 04:59:08;;;;;;;;;;;;;;;-4.93;58.13;94484.09;5092114;28;20546;-69
2022/12/13 05:01:33;;;;;;;;;;;;;;;-4.91;58.64;94487.25;5092163;28;20009;-68
2022/12/13 05:03:58;;;;;;;;;;;;;;;-4.92;57.81;94490.06;5092337;28;20070;-69
2022/12/13 05:06:24;;;;;;;;;;;;;;;-4.94;57.63;94485.09;5090853;28;20009;-68
2022/12/13 05:08:49;;;;;;;;;;;;;;;-4.99;58.35;94480.56;5073795;28;20210;-68
2022/12/13 05:11:14;;;;;;;;;;;;;;;-5.01;58.01;94479.25;5091842;28;20039;-68
2022/12/13 05:13:40;;;;;;;;;;;;;;;-4.97;58.96;94473.34;5092080;28;20009;-69
2022/12/13 05:16:07;;;;;;;;;;;;;;;-5.11;58.22;94463.44;5091994;28;20488;-69
2022/12/13 05:18:34;;;;;;;;;;;;;;;-5.14;59.57;94466.47;5073139;28;20017;-68
2022/12/13 05:21:03;;;;;;;;;;;;;;;-4.99;58.93;94459.03;5092116;28;20019;-68
2022/12/13 05:23:28;;;;;;;;;;;;;;;-5.12;58.54;94462.63;5092019;28;20095;-68
2022/12/13 05:25:53;;;;;;;;;;;;;;;-5.08;59.29;94462.97;5091881;28;20112;-68
2022/12/13 05:28:19;;;;;;;;;;;;;;;-5.11;59.13;94456.44;5091389;28;20024;-68
2022/12/13 05:30:44;;;;;;;;;;;;;;;-4.95;58.54;94462.78;5091391;28;20017;-69
2022/12/13 05:33:09;;;;;;;;;;;;;;;-4.87;58.21;94470.22;5091609;28;20456;-68
2022/12/13 05:35:35;;;;;;;;;;;;;;;-4.94;58.79;94461.75;5091482;28;20485;-68
2022/12/13 05:38:00;;;;;;;;;;;;;;;-4.83;58.71;94466.16;5091286;28;20104;-68
2022/12/13 05:40:27;;;;;;;;;;;;;;;-4.84;59.17;94463.81;5072977;28;20029;-68
2022/12/13 05:42:52;;;;;;;;;;;;;;;-4.73;59.21;94457.81;5091484;28;20017;-68
2022/12/13 05:45:17;;;;;;;;;;;;;;;-4.73;59.09;94463.78;5091361;28;20605;-68
2022/12/13 05:47:43;;;;;;;;;;;;;;;-4.65;57.78;94464.50;5091532;28;20013;-68
2022/12/13 05:50:09;;;;;;;;;;;;;;;-4.61;57.78;94460.41;5090923;28;20063;-68
2022/12/13 05:52:35;;;;;;;;;;;;;;;-4.72;57.89;94465.38;5091524;28;20016;-69
2022/12/13 05:55:00;;;;;;;;;;;;;;;-4.68;58.68;94467.53;5091796;28;20020;-68
2022/12/13 05:57:26;;;;;;;;;;;;;;;-4.86;57.82;94463.22;5091484;28;20062;-70
2022/12/13 05:59:51;;;;;;;;;;;;;;;-4.85;58.15;94472.59;5091191;28;20071;-68
2022/12/13 06:02:16;;;;;;;;;;;;;;;-5.03;58.50;94465.69;5073072;28;20112;-68
2022/12/13 06:04:42;;;;;;;;;;;;;;;-4.73;58.87;94468.19;5091455;28;20013;-68
2022/12/13 06:07:07;;;;;;;;;;;;;;;-4.67;57.94;94466.50;5072984;28;20058;-68
2022/12/13 06:09:32;;;;;;;;;;;;;;;-4.80;58.32;94444.97;5090158;28;20058;-68
2022/12/13 06:11:58;;;;;;;;;;;;;;;-4.65;58.10;94462.69;5090676;28;20060;-68
2022/12/13 06:14:23;;;;;;;;;;;;;;;-4.64;57.87;94460.88;5090578;28;20016;-69
2022/12/13 06:16:49;;;;;;;;;;;;;;;-4.60;58.27;94456.81;5090416;28;20532;-68
2022/12/13 06:19:14;;;;;;;;;;;;;;;-5.00;57.42;94467.84;5090230;28;20035;-68
2022/12/13 06:21:40;;;;;;;;;;;;;;;-4.67;58.03;94464.69;5090649;28;20008;-69
2022/12/13 06:24:07;;;;;;;;;;;;;;;-4.81;58.43;94466.75;5072073;28;20028;-68
2022/12/13 06:26:32;;;;;;;;;;;;;;;-4.65;58.50;94462.69;5072023;28;20047;-69
2022/12/13 06:28:58;;;;;;;;;;;;;;;-4.62;57.21;94457.03;5090167;28;20005;-68
2022/12/13 06:31:23;;;;;;;;;;;;;;;-4.60;57.99;94462.00;5090118;28;20016;-68
2022/12/13 06:33:49;;;;;;;;;;;;;;;-4.60;57.49;94462.00;5090462;28;20388;-69
2022/12/13 06:36:14;;;;;;;;;;;;;;;-4.58;57.83;94467.75;5090254;28;20016;-69
2022/12/13 06:38:40;;;;;;;;;;;;;;;-4.58;56.72;94471.13;5090396;28;20055;-69
2022/12/13 06:41:09;;;;;;;;;;;;;;;-4.93;58.62;94478.09;5090368;28;20457;-73
2022/12/13 06:43:40;;;;;;;;;;;;;;;-5.06;59.00;94473.94;5071708;28;20319;-66
2022/12/13 06:46:05;;;;;;;;;;;;;;;-4.94;58.47;94473.94;5087722;28;20012;-67
2022/12/13 06:48:31;;;;;;;;;;;;;;;-4.76;58.04;94466.88;5071323;28;20062;-67
2022/12/13 06:51:00;;;;;;;;;;;;;;;-4.67;58.17;94480.28;5089964;28;20021;-67
2022/12/13 06:53:25;;;;;;;;;;;;;;;-4.65;58.34;94473.06;5088169;28;20523;-67
2022/12/13 06:55:51;;;;;;;;;;;;;;;-4.65;57.37;94480.06;5090030;28;20012;-65
2022/12/13 06:58:16;;;;;;;;;;;;;;;-4.55;58.23;94480.28;5089794;28;20009;-67
2022/12/13 07:00:42;;;;;;;;;;;;;;;-4.52;57.90;94480.59;5084234;28;20021;-68
2022/12/13 07:03:08;;;;;;;;;;;;;;;-4.44;57.54;94484.69;5079120;28;20052;-68
2022/12/13 07:05:36;;;;;;;;;;;;;;;-4.39;57.76;94484.78;5086778;28;20546;-66
2022/12/13 07:08:01;;;;;;;;;;;;;;;-4.44;57.68;94484.69;5083243;28;20108;-66
2022/12/13 07:10:27;;;;;;;;;;;;;;;-4.51;56.62;94484.78;5088113;28;20114;-67
2022/12/13 07:12:52;;;;;;;;;;;;;;;-4.50;56.44;94480.41;5089530;28;20134;-66
2022/12/13 07:15:17;;;;;;;;;;;;;;;-4.91;57.38;94486.44;5088400;28;20020;-67
2022/12/13 07:17:42;;;;;;;;;;;;;;;-4.43;57.61;94488.84;5085686;28;20544;-67
2022/12/13 07:20:08;;;;;;;;;;;;;;;-4.34;56.98;94487.50;5082664;28;20013;-66
2022/12/13 07:22:33;;;;;;;;;;;;;;;-4.27;57.60;94493.34;5066894;28;20418;-66
2022/12/13 07:24:59;;;;;;;;;;;;;;;-4.19;56.75;94489.63;5089633;28;20115;-68
2022/12/13 07:27:24;;;;;;;;;;;;;;;-4.15;57.33;94495.16;5087222;28;20024;-67
2022/12/13 07:29:49;;;;;;;;;;;;;;;-4.07;56.59;94487.81;5091874;28;20013;-66
2022/12/13 07:32:14;;;;;;;;;;;;;;;-4.05;56.00;94487.56;5090527;28;20108;-68
2022/12/13 07:34:40;;;;;;;;;;;;;;;-4.02;55.98;94481.94;5093694;28;20066;-67
2022/12/13 07:37:05;;;;;;;;;;;;;;;-4.12;56.41;94479.13;5093702;28;20061;-66
2022/12/13 07:39:31;;;;;;;;;;;;;;;-4.43;57.05;94480.28;5093482;28;20009;-66
2022/12/13 07:41:56;;;;;;;;;;;;;;;-4.16;56.96;94488.38;5093573;28;20058;-67
2022/12/13 07:44:22;;;;;;;;;;;;;;;-4.02;56.58;94484.53;5093229;28;20720;-67
2022/12/13 07:46:47;;;;;;;;;;;;;;;-4.03;56.07;94477.75;5089988;28;20315;-67
2022/12/13 07:49:12;;;;;;;;;;;;;;;-4.14;56.41;94475.97;5092728;28;20013;-68
2022/12/13 07:51:37;;;;;;;;;;;;;;;-4.15;55.55;94477.75;5092974;28;20017;-69
2022/12/13 07:54:03;;;;;;;;;;;;;;;-4.00;55.91;94482.47;5093450;28;20012;-69
2022/12/13 07:56:28;;;;;;;;;;;;;;;-3.79;55.83;94486.25;5089514;28;20521;-69
2022/12/13 07:58:53;;;;;;;;;;;;;;;-3.97;55.59;94493.22;5092908;28;20507;-69
2022/12/13 08:01:18;;;;;;;;;;;;;;;-3.79;55.74;94492.25;5091501;28;20013;-68
2022/12/13 08:03:46;;;;;;;;;;;;;;;-3.73;55.31;94488.75;5061886;28;20413;-69
2022/12/13 08:06:11;;;;;;;;;;;;;;;-3.66;54.79;94492.00;5061098;28;20017;-69
2022/12/13 08:08:37;;;;;;;;;;;;;;;-4.31;56.29;94502.59;5083513;28;20024;-69
2022/12/13 08:11:10;;;;;;;;;;;;;;;-3.77;55.39;94489.44;5091969;28;20027;-70
2022/12/13 08:13:35;;;;;;;;;;;;;;;-3.58;54.95;94484.84;5092046;28;20059;-67
2022/12/13 08:16:01;;;;;;;;;;;;;;;-3.48;54.55;94485.84;5092321;28;20125;-68
2022/12/13 08:18:27;;;;;;;;;;;;;;;-3.84;54.81;94483.56;5091251;28;20020;-71
2022/12/13 08:20:56;;;;;;;;;;;;;;;-3.80;54.78;94482.88;5092112;28;20122;-71
2022/12/13 08:23:21;;;;;;;;;;;;;;;-3.94;55.53;94481.59;5092221;28;20024;-72
2022/12/13 08:25:50;;;;;;;;;;;;;;;-4.09;54.92;94422.31;5091601;28;20096;-70
2022/12/13 08:28:15;;;;;;;;;;;;;;;-3.98;55.42;94476.03;5071154;28;20023;-69
2022/12/13 08:30:40;;;;;;;;;;;;;;;-3.60;54.74;94479.09;5091948;28;20108;-69
2022/12/13 08:33:06;;;;;;;;;;;;;;;-3.54;54.57;94473.75;5073371;28;20419;-70
2022/12/13 08:35:31;;;;;;;;;;;;;;;-3.68;54.69;94472.47;5073712;28;20046;-71
2022/12/13 08:37:56;;;;;;;;;;;;;;;-3.42;54.27;94478.91;5089393;28;20466;-70
2022/12/13 08:40:22;;;;;;;;;;;;;;;-3.34;53.94;94480.34;5071025;28;20024;-69
2022/12/13 08:42:48;;;;;;;;;;;;;;;-3.47;53.72;94481.44;5089963;28;20100;-71
2022/12/13 08:45:13;;;;;;;;;;;;;;;-3.51;54.20;94488.09;5072299;28;20021;-69
2022/12/13 08:47:38;;;;;;;;;;;;;;;-3.38;53.21;94489.63;5090077;28;20119;-70
2022/12/13 08:50:04;;;;;;;;;;;;;;;-3.41;53.90;94496.88;5072268;28;20024;-70
2022/12/13 08:52:30;;;;;;;;;;;;;;;-3.38;53.54;94500.81;5090926;28;20515;-71
2022/12/13 08:54:55;;;;;;;;;;;;;;;-3.24;53.33;94503.94;5092856;28;20021;-70
2022/12/13 08:57:20;;;;;;;;;;;;;;;-3.13;53.15;94509.06;5074462;28;20667;-71
2022/12/13 08:59:45;;;;;;;;;;;;;;;-3.12;53.11;94499.47;5072026;28;20016;-71
2022/12/13 09:02:12;;;;;;;;;;;;;;;-3.44;53.45;94517.34;5088654;28;20012;-71
2022/12/13 09:04:37;;;;;;;;;;;;;;;-3.20;53.57;94510.25;5090531;28;20070;-73
2022/12/13 09:07:03;;;;;;;;;;;;;;;-2.93;52.96;94503.44;5071841;28;20017;-70
2022/12/13 09:09:28;;;;;;;;;;;;;;;-2.90;52.94;94512.59;5089651;28;20020;-69
2022/12/13 09:11:53;;;;;;;;;;;;;;;-2.93;52.82;94510.44;5089209;28;20021;-70
2022/12/13 09:14:18;;;;;;;;;;;;;;;-2.64;53.10;94500.78;5071441;28;20012;-69
2022/12/13 09:16:44;;;;;;;;;;;;;;;-2.71;52.14;94493.13;5090416;28;20013;-69
2022/12/13 09:19:09;;;;;;;;;;;;;;;-2.71;52.81;94490.53;5089269;28;20019;-70
2022/12/13 09:21:34;;;;;;;;;;;;;;;-2.58;52.28;94491.22;5072269;28;20012;-70
2022/12/13 09:23:59;;;;;;;;;;;;;;;-2.37;52.36;94495.69;5090266;28;20021;-71
2022/12/13 09:26:25;;;;;;;;;;;;;;;-2.47;51.84;94488.53;5089895;28;20044;-70
2022/12/13 09:28:50;;;;;;;;;;;;;;;-2.30;51.75;94490.31;5090207;28;20013;-70
2022/12/13 09:31:16;;;;;;;;;;;;;;;-2.05;51.09;94493.25;5090065;28;20016;-68
2022/12/13 09:33:42;;;;;;;;;;;;;;;-2.39;51.02;94497.75;5089693;28;20039;-70
2022/12/13 09:36:09;;;;;;;;;;;;;;;-2.43;51.34;94492.22;5072566;28;20483;-68
2022/12/13 09:38:35;;;;;;;;;;;;;;;-2.59;52.22;94489.66;5071874;28;20013;-70
2022/12/13 09:41:18;;;;;;;;;;;;;;;-2.38;51.69;94488.91;5090342;28;20017;-70
2022/12/13 09:43:45;;;;;;;;;;;;;;;-2.31;51.09;94480.94;5090364;28;20020;-71
2022/12/13 09:46:16;;;;;;;;;;;;;;;-2.25;51.76;94486.00;5090699;28;20020;-71
2022/12/13 09:48:41;;;;;;;;;;;;;;;-2.37;51.01;94486.06;5090329;28;20065;-70
2022/12/13 09:51:08;;;;;;;;;;;;;;;-2.52;51.30;94472.03;5068287;28;20044;-71
2022/12/13 09:53:33;;;;;;;;;;;;;;;-2.65;51.78;94486.19;5071306;28;20070;-71
2022/12/13 09:55:58;;;;;;;;;;;;;;;-2.48;51.40;94484.34;5089107;28;20064;-70
2022/12/13 09:58:26;;;;;;;;;;;;;;;-2.46;52.12;94474.47;5087956;28;20107;-72
2022/12/13 10:00:53;;;;;;;;;;;;;;;-2.17;51.07;94474.34;5082766;28;20052;-71
2022/12/13 10:03:20;;;;;;;;;;;;;;;-2.05;51.49;94469.03;5070037;28;20044;-73
2022/12/13 10:05:52;;;;;;;;;;;;;;;-2.25;51.35;94467.75;5071011;28;20017;-70
2022/12/13 10:08:22;;;;;;;;;;;;;;;-2.66;52.06;94467.16;5071275;28;20019;-75
2022/12/13 10:10:48;;;;;;;;;;;;;;;-2.32;51.68;94467.13;5071003;28;20021;-70
2022/12/13 10:13:20;;;;;;;;;;;;;;;-2.05;50.77;94466.41;5072640;28;20026;-70
2022/12/13 10:16:07;;;;;;;;;;;;;;;-1.92;50.80;94461.66;5068739;28;20114;-69
2022/12/13 10:18:34;;;;;;;;;;;;;;;-2.16;50.98;94461.06;5084611;28;20705;-71
2022/12/13 10:21:04;;;;;;;;;;;;;;;-2.24;50.91;94464.13;5054026;28;20049;-72
2022/12/13 10:23:29;;;;;;;;;;;;;;;-1.98;51.30;94461.84;5072734;28;20408;-73
2022/12/13 10:25:55;;;;;;;;;;;;;;;-2.23;50.88;94454.47;5073345;28;20012;-72
2022/12/13 10:28:25;;;;;;;;;;;;;;;-2.12;50.66;94451.75;5072022;28;20023;-70
2022/12/13 10:30:50;;;;;;;;;;;;;;;-1.76;50.57;94451.41;5073142;28;20158;-68
2022/12/13 10:33:29;;;;;;;;;;;;;;;-2.20;50.35;94449.59;5090114;28;20052;-69
2022/12/13 10:36:20;;;;;;;;;;;;;;;-1.92;51.43;94453.03;5088739;28;20103;-71
2022/12/13 10:38:46;;;;;;;;;;;;;;;-1.63;51.29;94454.44;5082241;28;20017;-70
2022/12/13 10:41:28;;;;;;;;;;;;;;;-1.49;50.62;94448.81;5090195;28;20020;-70
2022/12/13 10:44:08;;;;;;;;;;;;;;;-1.16;49.97;94443.41;5090815;28;20062;-70
2022/12/13 10:46:33;;;;;;;;;;;;;;;-1.56;49.64;94435.97;5075297;28;20013;-71
2022/12/13 10:48:59;;;;;;;;;;;;;;;-1.27;50.43;94431.31;5089782;28;20043;-71
2022/12/13 10:51:24;;;;;;;;;;;;;;;-1.10;49.27;94436.41;5071787;28;20500;-71
2022/12/13 10:53:53;;;;;;;;;;;;;;;-1.47;50.60;94434.50;5089799;28;20056;-72
2022/12/13 10:56:19;;;;;;;;;;;;;;;-1.18;50.04;94437.63;5071326;28;20040;-69
2022/12/13 10:58:45;;;;;;;;;;;;;;;-0.99;49.30;94432.06;5072424;28;20068;-71
2022/12/13 11:01:16;;;;;;;;;;;;;;;-0.77;49.67;94434.56;5090321;28;20009;-69
2022/12/13 11:03:41;;;;;;;;;;;;;;;-0.46;49.34;94430.34;5086889;28;20009;-71
2022/12/13 11:06:12;;;;;;;;;;;;;;;-0.73;49.04;94425.22;5056471;28;20135;-67
2022/12/13 11:08:37;;;;;;;;;;;;;;;-0.73;48.95;94426.00;5072093;28;20389;-69
2022/12/13 11:11:04;;;;;;;;;;;;;;;-0.51;48.51;94418.06;5071964;28;20021;-70
2022/12/13 11:13:33;;;;;;;;;;;;;;;-0.84;49.20;94416.53;5090791;28;20427;-71
2022/12/13 11:15:58;;;;;;;;;;;;;;;-0.53;49.02;94420.91;5089747;28;20015;-69
2022/12/13 11:18:25;;;;;;;;;;;;;;;-0.53;48.70;94420.13;5087544;28;20013;-71
2022/12/13 11:20:58;;;;;;;;;;;;;;;-0.41;48.76;94422.53;5089065;28;20111;-69
2022/12/13 11:23:28;;;;;;;;;;;;;;;-0.56;48.36;94431.09;5084268;28;20031;-69
2022/12/13 11:25:55;;;;;;;;;;;;;;;-0.53;48.69;94413.06;5089108;28;20737;-69
2022/12/13 11:28:31;;;;;;;;;;;;;;;-0.47;48.07;94407.88;5089980;28;20009;-69
2022/12/13 11:31:09;;;;;;;;;;;;;;;-0.47;47.99;94410.50;5088404;28;20025;-69
2022/12/13 11:33:35;;;;;;;;;;;;;;;-0.10;47.91;94411.22;5090125;28;20039;-70
2022/12/13 11:36:03;;;;;;;;;;;;;;;0.10;47.86;94404.50;5087202;28;20027;-70
2022/12/13 11:38:29;;;;;;;;;;;;;;;0.06;47.18;94406.06;5088036;28;20488;-71
2022/12/13 11:41:02;;;;;;;;;;;;;;;0.25;47.10;94394.09;5089342;28;20023;-70
2022/12/13 11:43:31;;;;;;;;;;;;;;;0.33;46.38;94401.44;5089853;28;20438;-69
2022/12/13 11:45:58;;;;;;;;;;;;;;;0.71;46.58;94396.81;5070647;28;20017;-67
2022/12/13 11:48:35;;;;;;;;;;;;;;;0.49;46.00;94395.19;5075904;28;20019;-70
2022/12/13 11:51:04;;;;;;;;;;;;;;;0.86;46.29;94391.59;5068948;28;20528;-70
2022/12/13 11:53:32;;;;;;;;;;;;;;;1.09;46.15;94392.13;5082276;28;20495;-70
2022/12/13 11:56:10;;;;;;;;;;;;;;;1.31;45.71;94390.00;5087935;28;20508;-69
2022/12/13 11:58:52;;;;;;;;;;;;;;;0.98;45.08;94392.13;5071023;28;20013;-70
2022/12/13 12:01:23;;;;;;;;;;;;;;;0.90;45.89;94391.84;5087550;28;20058;-71
2022/12/13 12:03:51;;;;;;;;;;;;;;;0.58;46.26;94392.88;5089936;28;20062;-71
2022/12/13 12:06:16;;;;;;;;;;;;;;;0.49;46.59;94397.81;5070983;28;20018;-71
2022/12/13 12:08:46;;;;;;;;;;;;;;;0.40;46.45;94399.34;5088106;28;20026;-71
2022/12/13 12:11:30;;;;;;;;;;;;;;;0.54;46.58;94402.28;5069583;28;20674;-70
2022/12/13 12:13:59;;;;;;;;;;;;;;;0.61;46.29;94396.78;5088387;28;20031;-71
2022/12/13 12:16:29;;;;;;;;;;;;;;;0.61;46.26;94386.31;5072177;28;20546;-71
2022/12/13 12:18:54;;;;;;;;;;;;;;;0.88;46.23;94380.88;5073292;28;20020;-71
2022/12/13 12:21:46;;;;;;;;;;;;;;;0.81;46.24;94386.34;5072028;28;20412;-72
2022/12/13 12:24:17;;;;;;;;;;;;;;;0.67;45.97;94386.09;5084866;28;20024;-70
2022/12/13 12:26:48;;;;;;;;;;;;;;;0.11;47.09;94387.78;5091694;28;20013;-71
2022/12/13 12:29:30;;;;;;;;;;;;;;;-0.27;47.65;94385.25;5072585;28;20017;-71
2022/12/13 12:32:03;;;;;;;;;;;;;;;0.16;47.40;94378.13;5076916;28;20275;-71
2022/12/13 12:34:34;;;;;;;;;;;;;;;-0.19;47.68;94376.16;5093302;28;20009;-71
2022/12/13 12:37:07;;;;;;;;;;;;;;;0.22;47.53;94384.16;5072606;28;20119;-71
2022/12/13 12:39:41;;;;;;;;;;;;;;;0.15;47.32;94380.97;5072467;28;20067;-70
2022/12/13 12:42:25;;;;;;;;;;;;;;;0.30;47.44;94375.78;5083752;28;20016;-70
2022/12/13 12:45:02;;;;;;;;;;;;;;;0.58;46.90;94381.63;5076265;28;20539;-70
2022/12/13 12:47:43;;;;;;;;;;;;;;;0.49;46.74;94376.09;5092409;28;20071;-70
2022/12/13 12:50:16;;;;;;;;;;;;;;;0.53;46.31;94374.53;5091818;28;20103;-71
2022/12/13 12:52:56;;;;;;;;;;;;;;;0.57;46.64;94380.84;5090236;28;20017;-70
2022/12/13 12:55:27;;;;;;;;;;;;;;;0.62;46.29;94374.81;5092992;28;20009;-71
2022/12/13 12:57:55;;;;;;;;;;;;;;;0.71;46.35;94384.50;5078050;28;20016;-71